Time;durP1;ratioP1;P1;durP2;ratioP2;P2;SDS_P1;SDS_P2;PMS_P1;PMS_P2;Temp;Humidity;BMP_temperature;BMP_pressure;BME280_temperature;BME280_humidity;BME280_pressure;Samples;Min_cycle;Max_cycle;Signal;HPM_P1;HPM_P2
2022/01/10 00:00:16;;;;;;;9.47;5.13;;;5.60;99.90;;;;;;5013972;28;20231;-61
2022/01/10 00:02:48;;;;;;;6.90;4.33;;;5.60;99.90;;;;;;5013824;28;20954;-62
2022/01/10 00:05:14;;;;;;;10.80;4.50;;;5.50;99.90;;;;;;5015554;28;20202;-62
2022/01/10 00:07:41;;;;;;;8.23;4.40;;;5.50;99.90;;;;;;5014697;28;20206;-62
2022/01/10 00:10:10;;;;;;;10.73;5.13;;;5.60;99.90;;;;;;5013866;28;20223;-62
2022/01/10 00:12:37;;;;;;;10.43;5.63;;;5.60;99.90;;;;;;5013650;28;20215;-63
2022/01/10 00:15:05;;;;;;;9.30;5.60;;;5.60;99.90;;;;;;5013414;28;20286;-63
2022/01/10 00:17:32;;;;;;;7.93;5.57;;;5.60;99.90;;;;;;5013809;28;20285;-65
2022/01/10 00:20:00;;;;;;;9.57;5.90;;;5.60;99.90;;;;;;5013739;28;20581;-65
2022/01/10 00:22:27;;;;;;;12.60;7.00;;;5.60;99.90;;;;;;5054310;22;20230;-59
2022/01/10 00:24:53;;;;;;;9.73;5.83;;;5.60;99.90;;;;;;5032683;28;20206;-59
2022/01/10 00:27:20;;;;;;;8.73;6.10;;;5.50;99.90;;;;;;5032512;28;20236;-61
2022/01/10 00:29:47;;;;;;;9.30;6.23;;;5.50;99.90;;;;;;5032658;28;20206;-58
2022/01/10 00:32:13;;;;;;;9.37;6.60;;;5.40;99.90;;;;;;5032340;28;20223;-59
2022/01/10 00:34:40;;;;;;;10.43;6.47;;;5.50;99.90;;;;;;5032348;28;20617;-60
2022/01/10 00:37:08;;;;;;;13.10;7.70;;;5.60;99.90;;;;;;5032330;28;20256;-58
2022/01/10 00:39:35;;;;;;;16.17;9.70;;;5.60;99.90;;;;;;5032533;28;20203;-59
2022/01/10 00:42:01;;;;;;;10.97;7.23;;;5.70;99.90;;;;;;5032666;28;20230;-59
2022/01/10 00:44:31;;;;;;;10.70;6.67;;;5.70;99.90;;;;;;5032364;28;20851;-59
2022/01/10 00:46:58;;;;;;;9.73;5.90;;;5.70;99.90;;;;;;5032102;28;20210;-59
2022/01/10 00:49:25;;;;;;;10.13;6.07;;;5.80;99.90;;;;;;5032595;28;20206;-59
2022/01/10 00:51:51;;;;;;;8.70;6.40;;;5.70;99.90;;;;;;5032544;28;20230;-59
2022/01/10 00:54:20;;;;;;;12.13;6.53;;;5.80;99.90;;;;;;5032443;28;20218;-58
2022/01/10 00:56:46;;;;;;;10.17;6.60;;;5.70;99.90;;;;;;5032030;28;20249;-59
2022/01/10 00:59:13;;;;;;;10.57;6.33;;;5.60;99.90;;;;;;5032227;28;20206;-60
2022/01/10 01:01:40;;;;;;;8.00;5.97;;;5.70;99.90;;;;;;5031864;28;20230;-59
2022/01/10 01:04:07;;;;;;;9.50;6.30;;;5.70;99.90;;;;;;5032305;28;20305;-59
2022/01/10 01:06:34;;;;;;;9.23;6.07;;;5.70;99.90;;;;;;5032096;28;20210;-59
2022/01/10 01:09:06;;;;;;;7.23;5.67;;;5.70;99.90;;;;;;5032170;28;20210;-59
2022/01/10 01:12:07;;;;;;;11.03;5.90;;;5.80;99.90;;;;;;5031988;28;20633;-58
2022/01/10 01:17:31;;;;;;;11.97;6.93;;;5.70;99.90;;;;;;5029054;28;20194;-59
2022/01/10 01:20:27;;;;;;;8.20;5.60;;;5.70;99.90;;;;;;5031949;28;20210;-59
2022/01/10 01:25:38;;;;;;;7.97;5.70;;;5.60;99.90;;;;;;5031987;28;20565;-59
2022/01/10 01:28:06;;;;;;;8.00;5.90;;;5.40;99.90;;;;;;5031892;28;20210;-59
2022/01/10 01:30:33;;;;;;;10.27;7.17;;;5.40;99.90;;;;;;5033769;28;20221;-61
2022/01/10 01:33:00;;;;;;;8.27;5.77;;;5.40;99.90;;;;;;5035942;28;20206;-60
2022/01/10 01:35:27;;;;;;;7.50;5.93;;;5.40;99.90;;;;;;5035934;28;20214;-59
2022/01/10 01:37:55;;;;;;;9.27;6.33;;;5.40;99.90;;;;;;5035704;28;20206;-59
2022/01/10 01:40:23;;;;;;;11.50;6.10;;;5.40;99.90;;;;;;5035724;28;20210;-59
2022/01/10 01:42:49;;;;;;;9.67;6.30;;;5.40;99.90;;;;;;5035597;28;20670;-59
2022/01/10 01:45:17;;;;;;;10.57;5.77;;;5.50;99.90;;;;;;5035534;28;20602;-59
2022/01/10 01:47:44;;;;;;;9.57;6.57;;;5.50;99.90;;;;;;5035661;28;20214;-60
2022/01/10 01:50:11;;;;;;;8.83;6.37;;;5.40;99.90;;;;;;5035395;28;20650;-60
2022/01/10 01:52:38;;;;;;;10.73;6.70;;;5.40;99.90;;;;;;5035745;28;20638;-60
2022/01/10 01:55:07;;;;;;;12.80;6.67;;;5.50;99.90;;;;;;5035550;28;20268;-59
2022/01/10 01:57:34;;;;;;;9.30;6.17;;;5.50;99.90;;;;;;5035276;28;20206;-59
2022/01/10 02:00:01;;;;;;;9.23;6.20;;;5.50;99.90;;;;;;5035551;28;20233;-59
2022/01/10 02:02:29;;;;;;;9.47;6.00;;;5.50;99.90;;;;;;5035455;28;20234;-60
2022/01/10 02:04:57;;;;;;;8.43;6.37;;;5.50;99.90;;;;;;5035475;28;20260;-59
2022/01/10 02:07:23;;;;;;;9.30;7.00;;;5.50;99.90;;;;;;5035078;28;20229;-59
2022/01/10 02:09:50;;;;;;;8.70;6.27;;;5.60;99.90;;;;;;5035205;28;20206;-59
2022/01/10 02:12:17;;;;;;;8.37;6.27;;;5.60;99.90;;;;;;5035187;28;20222;-60
2022/01/10 02:14:46;;;;;;;7.60;6.20;;;5.70;99.90;;;;;;5035344;28;20225;-60
2022/01/10 02:17:16;;;;;;;8.60;6.23;;;5.70;99.90;;;;;;5034982;28;20210;-59
2022/01/10 02:19:56;;;;;;;8.33;6.17;;;5.70;99.90;;;;;;5035247;28;20590;-59
2022/01/10 02:22:23;;;;;;;7.77;5.57;;;5.80;99.90;;;;;;5035210;28;20234;-59
2022/01/10 02:24:50;;;;;;;8.83;5.73;;;5.70;99.90;;;;;;5034870;28;20217;-59
2022/01/10 02:27:17;;;;;;;8.33;6.20;;;5.70;99.90;;;;;;5034925;28;20210;-59
2022/01/10 02:29:44;;;;;;;7.67;5.57;;;5.70;99.90;;;;;;5035086;28;20280;-59
2022/01/10 02:32:11;;;;;;;9.17;6.30;;;5.70;99.90;;;;;;5034783;28;20280;-59
2022/01/10 02:34:37;;;;;;;7.70;5.70;;;5.80;99.90;;;;;;5034793;28;20202;-60
2022/01/10 02:37:05;;;;;;;8.37;6.03;;;5.80;99.90;;;;;;5034536;28;20620;-60
2022/01/10 02:39:32;;;;;;;8.47;6.10;;;5.80;99.90;;;;;;5034554;28;20662;-59
2022/01/10 02:41:59;;;;;;;9.90;7.37;;;5.80;99.90;;;;;;5034009;28;20241;-59
2022/01/10 02:44:28;;;;;;;11.10;6.50;;;5.70;99.90;;;;;;5034526;28;20674;-59
2022/01/10 02:46:55;;;;;;;9.20;6.27;;;5.70;99.90;;;;;;5034167;28;20554;-59
2022/01/10 02:49:25;;;;;;;11.17;6.90;;;5.80;99.90;;;;;;5034383;28;20207;-60
2022/01/10 02:51:53;;;;;;;8.17;6.10;;;5.80;99.90;;;;;;5034285;28;20226;-60
2022/01/10 02:54:22;;;;;;;11.97;6.57;;;5.80;99.90;;;;;;5034613;28;20214;-58
2022/01/10 02:56:51;;;;;;;10.60;6.17;;;5.70;99.90;;;;;;5034256;28;20206;-59
2022/01/10 02:59:18;;;;;;;11.37;8.23;;;5.60;99.90;;;;;;5034372;28;20234;-60
2022/01/10 03:01:45;;;;;;;9.70;6.70;;;5.50;99.90;;;;;;5034160;28;20292;-58
2022/01/10 03:04:12;;;;;;;8.83;6.80;;;5.50;99.90;;;;;;5034210;28;20206;-59
2022/01/10 03:06:40;;;;;;;7.43;6.20;;;5.50;99.90;;;;;;5033962;28;20210;-59
2022/01/10 03:09:07;;;;;;;8.40;6.10;;;5.60;99.90;;;;;;5034279;28;20256;-59
2022/01/10 03:11:35;;;;;;;10.77;5.97;;;5.70;99.90;;;;;;5034089;28;20222;-59
2022/01/10 03:14:02;;;;;;;9.50;5.93;;;5.80;99.90;;;;;;5034209;28;20210;-60
2022/01/10 03:16:29;;;;;;;9.10;5.63;;;5.90;99.90;;;;;;5033775;28;20260;-59
2022/01/10 03:18:56;;;;;;;8.97;5.60;;;6.00;99.90;;;;;;5033999;28;20210;-59
2022/01/10 03:21:23;;;;;;;8.13;5.50;;;6.10;99.90;;;;;;5033770;28;20234;-60
2022/01/10 03:23:51;;;;;;;6.33;5.33;;;6.10;99.90;;;;;;5034118;28;20759;-59
2022/01/10 03:26:18;;;;;;;11.00;6.20;;;6.00;99.90;;;;;;5034091;28;20297;-59
2022/01/10 03:28:47;;;;;;;9.83;5.73;;;6.00;99.90;;;;;;5033865;28;20229;-59
2022/01/10 03:31:14;;;;;;;6.87;5.57;;;6.00;99.90;;;;;;5033684;28;20230;-59
2022/01/10 03:33:41;;;;;;;6.97;5.47;;;6.10;99.90;;;;;;5033510;28;20215;-60
2022/01/10 03:36:08;;;;;;;7.63;5.93;;;6.10;99.90;;;;;;5033704;28;20256;-59
2022/01/10 03:38:34;;;;;;;7.57;5.70;;;6.20;99.90;;;;;;5034056;28;20229;-59
2022/01/10 03:41:01;;;;;;;7.60;5.23;;;6.10;99.90;;;;;;5033263;28;20229;-59
2022/01/10 03:43:28;;;;;;;7.77;6.03;;;6.10;99.90;;;;;;5033555;28;20209;-59
2022/01/10 03:45:57;;;;;;;7.10;5.60;;;6.00;99.90;;;;;;5033333;28;20210;-59
2022/01/10 03:48:23;;;;;;;6.77;5.80;;;6.10;99.90;;;;;;5033180;28;20325;-60
2022/01/10 03:50:50;;;;;;;6.30;5.10;;;6.10;99.90;;;;;;5033190;28;20229;-59
2022/01/10 03:53:17;;;;;;;7.03;5.33;;;6.00;99.90;;;;;;5032535;28;20199;-59
2022/01/10 03:55:44;;;;;;;8.10;5.77;;;6.00;99.90;;;;;;5033324;28;20207;-60
2022/01/10 03:58:10;;;;;;;7.37;5.23;;;6.10;99.90;;;;;;5033041;28;20213;-59
2022/01/10 04:00:37;;;;;;;8.47;6.10;;;6.10;99.90;;;;;;5033055;28;20226;-59
2022/01/10 04:03:07;;;;;;;7.67;6.40;;;6.00;99.90;;;;;;5033222;28;20232;-59
2022/01/10 04:05:34;;;;;;;8.60;5.70;;;6.10;99.90;;;;;;5033204;28;20206;-60
2022/01/10 04:08:01;;;;;;;9.40;6.27;;;6.10;99.90;;;;;;5032893;28;20210;-60
2022/01/10 04:10:28;;;;;;;10.27;7.10;;;6.10;99.90;;;;;;5032973;28;20210;-60
2022/01/10 04:12:55;;;;;;;9.07;6.20;;;6.10;99.90;;;;;;5033383;28;20213;-59
2022/01/10 04:15:21;;;;;;;8.73;6.50;;;6.10;99.90;;;;;;5033095;28;20222;-60
2022/01/10 04:17:52;;;;;;;9.47;6.33;;;6.00;99.90;;;;;;5032700;28;20202;-59
2022/01/10 04:20:20;;;;;;;11.53;6.67;;;6.10;99.90;;;;;;5032667;28;20670;-59
2022/01/10 04:22:48;;;;;;;10.50;6.23;;;6.10;99.90;;;;;;5032759;28;20280;-60
2022/01/10 04:25:14;;;;;;;9.13;6.33;;;6.10;99.90;;;;;;5032743;28;20206;-59
2022/01/10 04:27:41;;;;;;;9.23;7.03;;;6.10;99.90;;;;;;5032357;28;20202;-60
2022/01/10 04:30:10;;;;;;;10.00;6.67;;;6.10;99.90;;;;;;5032804;28;20644;-60
2022/01/10 04:32:37;;;;;;;8.53;6.70;;;6.20;99.90;;;;;;5032611;28;20317;-60
2022/01/10 04:35:04;;;;;;;7.10;5.90;;;6.10;99.90;;;;;;5032667;28;20246;-59
2022/01/10 04:37:32;;;;;;;8.37;6.43;;;6.20;99.90;;;;;;5032419;28;20210;-59
2022/01/10 04:39:59;;;;;;;32.50;24.77;;;6.20;99.90;;;;;;5032342;28;20206;-60
2022/01/10 04:42:26;;;;;;;8.80;6.27;;;6.30;99.90;;;;;;5032062;28;20241;-60
2022/01/10 04:44:53;;;;;;;8.77;6.20;;;6.00;99.90;;;;;;5032605;28;20217;-58
2022/01/10 04:47:19;;;;;;;7.43;5.80;;;5.80;99.90;;;;;;5032461;28;20248;-58
2022/01/10 04:50:05;;;;;;;8.43;6.10;;;5.60;99.90;;;;;;5032532;28;20293;-58
2022/01/10 04:52:33;;;;;;;10.50;6.20;;;5.30;99.90;;;;;;5032612;28;20230;-58
2022/01/10 04:55:00;;;;;;;8.43;6.23;;;5.20;99.90;;;;;;5032505;28;20551;-59
2022/01/10 04:57:27;;;;;;;13.90;6.40;;;5.00;99.90;;;;;;5032477;28;20209;-58
2022/01/10 04:59:54;;;;;;;9.27;6.33;;;4.90;99.90;;;;;;5032350;28;20589;-58
2022/01/10 05:02:21;;;;;;;11.80;6.20;;;5.00;99.90;;;;;;5032626;28;20434;-58
2022/01/10 05:04:47;;;;;;;9.03;6.17;;;5.20;99.90;;;;;;5032230;28;20221;-59
2022/01/10 05:07:14;;;;;;;8.17;6.00;;;5.50;99.90;;;;;;5031989;28;20728;-58
2022/01/10 05:09:42;;;;;;;8.60;6.60;;;5.70;99.90;;;;;;5032408;28;20207;-59
2022/01/10 05:12:09;;;;;;;9.70;6.40;;;5.80;99.90;;;;;;5031744;28;20784;-58
2022/01/10 05:14:36;;;;;;;9.67;6.50;;;5.90;99.90;;;;;;5031988;28;20202;-60
2022/01/10 05:17:03;;;;;;;9.23;6.47;;;6.00;99.90;;;;;;5031904;28;20237;-59
2022/01/10 05:19:29;;;;;;;11.90;7.83;;;6.10;99.90;;;;;;5032355;28;20210;-60
2022/01/10 05:21:56;;;;;;;11.53;7.80;;;6.20;99.90;;;;;;5031710;28;20644;-58
2022/01/10 05:24:23;;;;;;;9.93;6.37;;;6.20;99.90;;;;;;5032256;28;20210;-58
2022/01/10 05:26:51;;;;;;;11.73;7.80;;;6.30;99.90;;;;;;5032011;28;20217;-60
2022/01/10 05:29:18;;;;;;;10.40;6.60;;;6.40;99.90;;;;;;5031986;28;20209;-60
2022/01/10 05:31:45;;;;;;;9.97;6.50;;;6.40;99.90;;;;;;5031886;28;20230;-58
2022/01/10 05:34:12;;;;;;;14.03;8.27;;;6.50;99.90;;;;;;5031975;28;20206;-59
2022/01/10 05:36:39;;;;;;;9.07;6.10;;;6.50;99.90;;;;;;5031556;28;20244;-58
2022/01/10 05:39:07;;;;;;;8.70;6.10;;;6.40;99.90;;;;;;5031744;28;20674;-58
2022/01/10 05:41:34;;;;;;;9.40;6.70;;;6.40;99.90;;;;;;5031680;28;20229;-58
2022/01/10 05:44:03;;;;;;;11.37;6.67;;;6.30;99.90;;;;;;5031511;28;20210;-58
2022/01/10 05:46:30;;;;;;;9.53;6.37;;;6.30;99.90;;;;;;5031986;28;20202;-59
2022/01/10 05:49:00;;;;;;;12.90;7.03;;;6.20;99.90;;;;;;5031847;28;20292;-59
2022/01/10 05:51:29;;;;;;;12.83;9.20;;;6.10;99.90;;;;;;5032160;28;20230;-58
2022/01/10 05:53:55;;;;;;;8.97;7.17;;;6.10;99.90;;;;;;5031794;28;20341;-58
2022/01/10 05:56:22;;;;;;;10.13;7.33;;;6.20;99.90;;;;;;5031634;28;20206;-59
2022/01/10 05:58:49;;;;;;;14.03;8.37;;;6.30;99.90;;;;;;5031763;28;20213;-60
2022/01/10 06:01:17;;;;;;;13.60;8.70;;;6.40;99.90;;;;;;5031720;28;20233;-59
2022/01/10 06:03:44;;;;;;;11.10;7.40;;;6.40;99.90;;;;;;5031468;28;20635;-59
2022/01/10 06:06:11;;;;;;;9.37;7.57;;;6.40;99.90;;;;;;5032032;28;20210;-59
2022/01/10 06:08:38;;;;;;;10.30;7.93;;;6.30;99.90;;;;;;5031355;28;20697;-60
2022/01/10 06:11:05;;;;;;;12.67;7.57;;;6.00;99.90;;;;;;5031577;28;20249;-60
2022/01/10 06:13:31;;;;;;;9.67;7.30;;;6.00;99.90;;;;;;5031473;28;20210;-59
2022/01/10 06:15:58;;;;;;;13.10;7.90;;;6.00;99.90;;;;;;5031420;28;20218;-59
2022/01/10 06:18:26;;;;;;;15.40;7.77;;;5.80;99.90;;;;;;5034216;28;20209;-60
2022/01/10 06:20:54;;;;;;;10.40;6.97;;;5.60;99.90;;;;;;5056663;22;20242;-63
2022/01/10 06:23:21;;;;;;;14.33;8.73;;;5.30;99.90;;;;;;5014826;28;20223;-65
2022/01/10 06:25:48;;;;;;;10.47;7.43;;;5.20;99.90;;;;;;5015095;28;20218;-65
2022/01/10 06:28:15;;;;;;;15.70;10.30;;;5.30;99.90;;;;;;5014516;28;20210;-65
2022/01/10 06:30:41;;;;;;;13.40;7.60;;;5.50;99.90;;;;;;5014416;28;20290;-65
2022/01/10 06:33:08;;;;;;;15.97;7.87;;;5.70;99.90;;;;;;5014887;28;20305;-65
2022/01/10 06:35:36;;;;;;;13.27;9.30;;;5.80;99.90;;;;;;5014740;28;20847;-65
2022/01/10 06:38:04;;;;;;;12.57;7.93;;;6.00;99.90;;;;;;5014498;28;20640;-64
2022/01/10 06:40:31;;;;;;;14.10;8.20;;;6.00;99.90;;;;;;5014678;28;20211;-65
2022/01/10 06:42:58;;;;;;;13.23;8.03;;;6.00;99.90;;;;;;5014247;28;20231;-65
2022/01/10 06:45:24;;;;;;;10.60;7.43;;;6.10;99.90;;;;;;5014264;28;20218;-65
2022/01/10 06:47:51;;;;;;;13.37;8.17;;;6.20;99.90;;;;;;5014534;28;20211;-65
2022/01/10 06:50:18;;;;;;;13.20;8.10;;;6.10;99.90;;;;;;5014420;28;20211;-65
2022/01/10 06:52:46;;;;;;;12.33;8.40;;;6.00;99.90;;;;;;5014382;28;20223;-65
2022/01/10 06:55:13;;;;;;;10.00;7.57;;;5.90;99.90;;;;;;5014416;28;20211;-65
2022/01/10 06:57:40;;;;;;;14.70;8.03;;;5.90;99.90;;;;;;5013884;28;20215;-65
2022/01/10 07:00:08;;;;;;;10.50;6.83;;;6.00;99.90;;;;;;5014325;28;20214;-65
2022/01/10 07:02:35;;;;;;;7.77;6.97;;;6.10;99.90;;;;;;5013976;28;20227;-65
2022/01/10 07:05:02;;;;;;;10.90;7.60;;;6.20;99.90;;;;;;5014227;28;20290;-65
2022/01/10 07:07:29;;;;;;;14.23;7.70;;;6.20;99.90;;;;;;5014155;28;20211;-65
2022/01/10 07:09:57;;;;;;;10.20;7.13;;;6.30;99.90;;;;;;5014072;28;20257;-65
2022/01/10 07:12:24;;;;;;;15.10;7.70;;;6.10;99.90;;;;;;5013569;28;20611;-65
2022/01/10 07:14:50;;;;;;;11.87;7.70;;;5.80;99.90;;;;;;5014171;28;20206;-64
2022/01/10 07:17:17;;;;;;;12.80;8.83;;;5.50;99.90;;;;;;5013942;28;20654;-65
2022/01/10 07:19:44;;;;;;;11.47;8.00;;;5.30;99.90;;;;;;5014486;28;20203;-65
2022/01/10 07:22:10;;;;;;;10.23;7.60;;;5.50;99.90;;;;;;5013695;28;20254;-65
2022/01/10 07:24:39;;;;;;;9.90;7.33;;;5.50;99.90;;;;;;5014131;28;20215;-65
2022/01/10 07:27:07;;;;;;;12.67;8.17;;;5.60;99.90;;;;;;5013218;28;20207;-65
2022/01/10 07:29:34;;;;;;;13.37;7.80;;;5.60;99.90;;;;;;5013854;28;20272;-65
2022/01/10 07:32:01;;;;;;;12.83;8.17;;;5.40;99.90;;;;;;5013770;28;20280;-65
2022/01/10 07:34:27;;;;;;;14.47;8.10;;;5.10;99.90;;;;;;5013894;28;20556;-65
2022/01/10 07:36:54;;;;;;;11.00;8.70;;;4.90;99.90;;;;;;5013375;28;20230;-65
2022/01/10 07:39:21;;;;;;;13.10;8.30;;;4.90;99.90;;;;;;5013311;28;20215;-65
2022/01/10 07:41:47;;;;;;;13.70;10.20;;;5.00;99.90;;;;;;5013202;28;20223;-65
2022/01/10 07:44:15;;;;;;;12.53;9.20;;;5.10;99.90;;;;;;5013383;28;20239;-65
2022/01/10 07:46:42;;;;;;;13.23;7.93;;;5.30;99.90;;;;;;5013048;28;20265;-65
2022/01/10 07:49:09;;;;;;;12.70;8.33;;;5.30;99.90;;;;;;5013375;28;20207;-64
2022/01/10 07:51:36;;;;;;;12.90;10.13;;;5.30;99.90;;;;;;5012995;28;20784;-65
2022/01/10 07:54:02;;;;;;;13.13;9.60;;;5.10;99.90;;;;;;5012967;28;20207;-65
2022/01/10 07:56:29;;;;;;;14.57;9.33;;;5.10;99.90;;;;;;5012948;28;20214;-64
2022/01/10 07:58:56;;;;;;;14.93;9.77;;;5.30;99.90;;;;;;5013020;28;20675;-65
2022/01/10 08:01:24;;;;;;;13.03;9.63;;;5.40;99.90;;;;;;5013080;28;20227;-65
2022/01/10 08:03:52;;;;;;;13.13;9.60;;;5.50;99.90;;;;;;5012959;28;20273;-65
2022/01/10 08:06:20;;;;;;;14.63;9.80;;;5.50;99.90;;;;;;5013825;28;20592;-65
2022/01/10 08:08:46;;;;;;;12.60;8.50;;;5.60;99.90;;;;;;5012533;28;20210;-65
2022/01/10 08:11:13;;;;;;;17.80;10.90;;;5.60;99.90;;;;;;5013006;28;20418;-65
2022/01/10 08:13:41;;;;;;;16.10;9.47;;;5.30;99.90;;;;;;5012938;28;20242;-65
2022/01/10 08:16:08;;;;;;;14.47;7.50;;;5.20;99.90;;;;;;5012933;28;20243;-65
2022/01/10 08:18:37;;;;;;;12.73;6.00;;;5.40;99.90;;;;;;5012563;28;20207;-65
2022/01/10 08:21:06;;;;;;;11.63;5.63;;;5.50;99.90;;;;;;5012532;28;20285;-65
2022/01/10 08:23:32;;;;;;;12.87;7.00;;;5.70;99.90;;;;;;5012286;28;20667;-65
2022/01/10 08:25:59;;;;;;;14.27;7.53;;;5.80;99.90;;;;;;5012802;28;20205;-65
2022/01/10 08:28:26;;;;;;;12.50;6.63;;;6.00;99.90;;;;;;5012338;28;20286;-64
2022/01/10 08:30:52;;;;;;;9.30;6.00;;;6.10;99.90;;;;;;5012349;28;20686;-65
2022/01/10 08:33:19;;;;;;;9.27;5.10;;;6.10;99.90;;;;;;5012709;28;20206;-65
2022/01/10 08:35:48;;;;;;;10.43;5.53;;;6.10;99.90;;;;;;5012438;28;20207;-62
2022/01/10 08:38:15;;;;;;;10.20;6.33;;;6.30;99.90;;;;;;5012308;28;20210;-62
2022/01/10 08:40:42;;;;;;;8.43;5.63;;;6.60;99.90;;;;;;5011565;28;20266;-62
2022/01/10 08:43:10;;;;;;;16.33;6.63;;;6.50;99.90;;;;;;5011819;28;20273;-59
2022/01/10 08:45:38;;;;;;;12.73;6.40;;;6.30;99.90;;;;;;5012208;28;20207;-60
2022/01/10 08:48:06;;;;;;;13.50;7.07;;;6.20;99.90;;;;;;5012122;28;20738;-60
2022/01/10 08:50:34;;;;;;;10.57;7.50;;;6.00;99.90;;;;;;5012168;28;20667;-59
2022/01/10 08:53:03;;;;;;;12.43;6.73;;;5.60;99.90;;;;;;5012199;28;20661;-59
2022/01/10 08:55:30;;;;;;;12.63;7.07;;;5.30;99.90;;;;;;5012081;28;20210;-60
2022/01/10 08:57:57;;;;;;;15.57;7.80;;;5.10;99.90;;;;;;5012394;28;20203;-61
2022/01/10 09:00:23;;;;;;;11.93;7.80;;;5.20;99.90;;;;;;5012143;28;20257;-59
2022/01/10 09:02:50;;;;;;;13.30;7.83;;;5.30;99.90;;;;;;5011896;28;20230;-60
2022/01/10 09:05:17;;;;;;;13.07;7.87;;;5.30;99.90;;;;;;5012150;28;20253;-60
2022/01/10 09:07:44;;;;;;;15.40;7.93;;;5.40;99.90;;;;;;5011871;28;20587;-60
2022/01/10 09:10:13;;;;;;;12.93;9.10;;;5.30;99.90;;;;;;5012180;28;20215;-60
2022/01/10 09:12:40;;;;;;;16.17;9.00;;;5.50;99.90;;;;;;5011845;28;20234;-60
2022/01/10 09:15:08;;;;;;;13.80;8.83;;;5.80;99.90;;;;;;5011691;28;20660;-60
2022/01/10 09:17:35;;;;;;;12.23;7.53;;;6.20;99.90;;;;;;5011460;28;20284;-59
2022/01/10 09:20:02;;;;;;;9.77;7.57;;;6.50;99.90;;;;;;5012154;28;20266;-59
2022/01/10 09:22:29;;;;;;;12.13;6.67;;;6.30;99.90;;;;;;5012582;28;20238;-60
2022/01/10 09:24:56;;;;;;;14.23;7.20;;;5.80;99.90;;;;;;5011807;28;20242;-60
2022/01/10 09:27:24;;;;;;;12.93;7.17;;;5.30;99.90;;;;;;5011806;28;20215;-60
2022/01/10 09:29:51;;;;;;;11.97;7.60;;;5.30;99.90;;;;;;5011718;28;20207;-60
2022/01/10 09:32:18;;;;;;;12.37;7.40;;;5.40;99.90;;;;;;5011891;28;20230;-59
2022/01/10 09:34:44;;;;;;;12.40;7.23;;;5.40;99.90;;;;;;5011380;28;20202;-60
2022/01/10 09:37:11;;;;;;;11.30;7.90;;;5.50;99.90;;;;;;5011441;28;20214;-60
2022/01/10 09:39:38;;;;;;;13.53;8.90;;;5.50;99.90;;;;;;5011655;28;20270;-60
2022/01/10 09:42:05;;;;;;;12.30;8.07;;;5.80;99.90;;;;;;5011465;28;20230;-59
2022/01/10 09:44:34;;;;;;;13.13;7.40;;;6.10;99.90;;;;;;5011386;28;20703;-59
2022/01/10 09:47:01;;;;;;;14.13;8.53;;;5.70;99.90;;;;;;5011578;28;20751;-60
2022/01/10 09:49:27;;;;;;;15.87;9.70;;;5.70;99.90;;;;;;5011350;28;20671;-60
2022/01/10 09:51:54;;;;;;;13.80;9.03;;;6.00;99.90;;;;;;5012296;28;20235;-59
2022/01/10 09:54:21;;;;;;;13.40;8.00;;;6.30;99.90;;;;;;5015181;28;20203;-60
2022/01/10 09:56:49;;;;;;;14.73;8.40;;;6.70;99.90;;;;;;5014820;28;20341;-60
2022/01/10 09:59:16;;;;;;;12.87;7.87;;;6.70;99.90;;;;;;5015408;28;20234;-60
2022/01/10 10:01:49;;;;;;;15.80;8.83;;;6.70;99.90;;;;;;5015277;28;20226;-59
2022/01/10 10:04:16;;;;;;;13.97;7.97;;;6.30;99.90;;;;;;5015012;28;20764;-59
2022/01/10 10:06:43;;;;;;;15.33;7.70;;;6.00;99.90;;;;;;5014860;28;20241;-59
2022/01/10 10:09:10;;;;;;;15.00;8.03;;;6.00;99.90;;;;;;5015671;28;20679;-60
2022/01/10 10:11:38;;;;;;;17.13;8.50;;;6.20;99.90;;;;;;5015018;28;20257;-59
2022/01/10 10:14:06;;;;;;;12.80;8.10;;;6.40;99.90;;;;;;5015183;28;20198;-60
2022/01/10 10:16:35;;;;;;;14.47;8.10;;;6.50;99.90;;;;;;5015180;28;20218;-59
2022/01/10 10:19:04;;;;;;;19.67;11.40;;;6.80;99.90;;;;;;5014806;28;20253;-60
2022/01/10 10:21:31;;;;;;;14.00;7.80;;;7.20;99.90;;;;;;5014729;28;20242;-65
2022/01/10 10:23:58;;;;;;;15.53;8.20;;;7.60;99.90;;;;;;5015609;28;20223;-62
2022/01/10 10:26:26;;;;;;;13.73;7.97;;;8.00;99.90;;;;;;5015179;28;20203;-61
2022/01/10 10:28:55;;;;;;;12.57;8.20;;;8.20;99.90;;;;;;5014840;28;20206;-60
2022/01/10 10:31:27;;;;;;;14.37;7.63;;;7.80;99.90;;;;;;5015120;28;20230;-60
2022/01/10 10:33:54;;;;;;;15.40;7.73;;;7.30;99.90;;;;;;5015184;28;20595;-63
2022/01/10 10:36:25;;;;;;;13.07;7.77;;;7.60;99.90;;;;;;5014754;28;20293;-61
2022/01/10 10:38:52;;;;;;;15.93;8.37;;;7.80;99.90;;;;;;5014759;28;20289;-60
2022/01/10 10:41:18;;;;;;;14.40;8.63;;;8.10;99.90;;;;;;5014996;28;20231;-61
2022/01/10 10:43:45;;;;;;;12.77;8.37;;;8.50;99.90;;;;;;5014893;28;20231;-60
2022/01/10 10:46:16;;;;;;;13.33;7.40;;;8.80;99.90;;;;;;5014885;28;20207;-62
2022/01/10 10:48:45;;;;;;;12.60;8.03;;;9.10;99.90;;;;;;5014884;28;20214;-60
2022/01/10 10:51:12;;;;;;;14.10;8.03;;;8.90;99.90;;;;;;5014861;28;20231;-60
2022/01/10 10:53:40;;;;;;;10.87;7.20;;;8.90;99.90;;;;;;5015387;28;20207;-67
2022/01/10 10:56:08;;;;;;;13.87;7.67;;;9.10;99.90;;;;;;5015398;28;20211;-66
2022/01/10 10:58:36;;;;;;;12.70;6.90;;;9.40;99.90;;;;;;5014673;28;20211;-67
2022/01/10 11:01:04;;;;;;;12.10;7.70;;;9.70;99.90;;;;;;5014296;28;20235;-67
2022/01/10 11:03:31;;;;;;;15.20;8.07;;;10.10;99.90;;;;;;5013653;28;20206;-66
2022/01/10 11:05:59;;;;;;;17.37;8.27;;;10.40;99.90;;;;;;5014412;28;20534;-67
2022/01/10 11:08:27;;;;;;;12.23;7.80;;;10.70;99.90;;;;;;5013875;28;20230;-66
2022/01/10 11:10:56;;;;;;;12.17;7.27;;;11.10;99.90;;;;;;5014036;28;20597;-66
2022/01/10 11:13:24;;;;;;;10.13;7.03;;;11.40;99.90;;;;;;5013918;28;20215;-66
2022/01/10 11:15:52;;;;;;;11.57;6.70;;;11.50;99.90;;;;;;5013920;28;20318;-66
2022/01/10 11:18:20;;;;;;;13.20;7.93;;;11.40;99.90;;;;;;5013553;28;20967;-65
2022/01/10 11:20:49;;;;;;;8.63;5.93;;;11.50;99.90;;;;;;5013602;28;20590;-68
2022/01/10 11:23:16;;;;;;;12.27;8.30;;;11.40;99.90;;;;;;5014163;28;20211;-67
2022/01/10 11:25:43;;;;;;;10.83;6.77;;;11.20;99.90;;;;;;5013756;28;20226;-68
2022/01/10 11:28:20;;;;;;;16.10;6.70;;;11.10;99.90;;;;;;5014338;28;20198;-68
2022/01/10 11:30:48;;;;;;;12.83;7.10;;;10.70;99.90;;;;;;5013715;28;20206;-69
2022/01/10 11:33:17;;;;;;;13.33;6.23;;;9.90;99.90;;;;;;5014203;28;20203;-67
2022/01/10 11:35:46;;;;;;;9.60;5.77;;;9.40;99.90;;;;;;5013995;28;20213;-66
2022/01/10 11:38:29;;;;;;;10.27;6.00;;;9.10;99.90;;;;;;5013113;28;20203;-66
2022/01/10 11:40:57;;;;;;;10.57;6.50;;;9.00;99.90;;;;;;5013261;28;20211;-66
2022/01/10 11:43:37;;;;;;;10.83;6.10;;;8.70;99.90;;;;;;5013666;28;20207;-66
2022/01/10 11:46:13;;;;;;;11.03;5.70;;;8.60;99.90;;;;;;5013674;28;20206;-68
2022/01/10 11:48:45;;;;;;;10.57;5.07;;;8.50;99.90;;;;;;5013176;28;20694;-68
2022/01/10 11:51:17;;;;;;;9.23;5.30;;;8.30;99.90;;;;;;5013101;28;20234;-66
2022/01/10 11:53:46;;;;;;;12.30;5.67;;;8.00;99.90;;;;;;5013671;28;20310;-66
2022/01/10 11:56:28;;;;;;;10.23;5.23;;;8.00;99.90;;;;;;5014054;28;20214;-69
2022/01/10 11:59:10;;;;;;;10.90;6.23;;;8.20;99.90;;;;;;5015274;28;20249;-66
2022/01/10 12:01:39;;;;;;;10.23;6.77;;;8.10;99.90;;;;;;5015941;28;20241;-69
2022/01/10 12:04:06;;;;;;;8.33;5.93;;;8.20;99.90;;;;;;5015419;28;20234;-68
2022/01/10 12:06:33;;;;;;;9.97;6.87;;;8.50;99.90;;;;;;5014847;28;20273;-67
2022/01/10 12:09:01;;;;;;;19.97;7.60;;;8.50;99.90;;;;;;5014368;28;20203;-67
2022/01/10 12:11:29;;;;;;;14.87;7.13;;;8.50;99.90;;;;;;5015094;28;20238;-67
2022/01/10 12:13:56;;;;;;;12.18;6.93;;;8.30;99.90;;;;;;5005487;28;20546;-74
2022/01/10 12:16:26;;;;;;;12.00;6.87;;;8.00;99.90;;;;;;5012971;28;20195;-67
2022/01/10 12:18:53;;;;;;;11.57;6.67;;;8.00;99.90;;;;;;5011885;28;20214;-68
2022/01/10 12:21:20;;;;;;;9.83;6.40;;;8.00;99.90;;;;;;5036629;22;20560;-62
2022/01/10 12:23:47;;;;;;;10.50;6.40;;;8.00;99.90;;;;;;5011840;28;20213;-61
2022/01/10 12:26:15;;;;;;;14.23;7.83;;;8.00;99.90;;;;;;4993578;28;20306;-61
2022/01/10 12:28:44;;;;;;;11.63;6.50;;;8.00;99.90;;;;;;4993043;28;20211;-62
2022/01/10 12:31:11;;;;;;;10.40;6.10;;;8.10;99.90;;;;;;4993116;28;20207;-62
2022/01/10 12:33:39;;;;;;;11.93;6.70;;;8.10;99.90;;;;;;4993407;28;20222;-60
2022/01/10 12:36:06;;;;;;;11.50;6.30;;;8.10;99.90;;;;;;4993417;28;20555;-62
2022/01/10 12:38:32;;;;;;;11.03;6.03;;;8.00;99.90;;;;;;4993009;28;20730;-61
2022/01/10 12:40:59;;;;;;;11.03;5.70;;;8.00;99.90;;;;;;4992511;28;20235;-62
2022/01/10 12:43:26;;;;;;;10.20;6.50;;;8.00;99.90;;;;;;4992903;28;20273;-62
2022/01/10 12:45:53;;;;;;;10.80;6.17;;;7.90;99.90;;;;;;4992874;28;20250;-62
2022/01/10 12:48:24;;;;;;;11.90;6.33;;;7.90;99.90;;;;;;4992720;28;20200;-62
2022/01/10 12:50:54;;;;;;;10.97;5.37;;;8.10;99.90;;;;;;4992975;28;20211;-63
2022/01/10 12:53:22;;;;;;;11.27;6.50;;;8.10;99.90;;;;;;4992851;28;20227;-62
2022/01/10 12:55:49;;;;;;;13.37;6.40;;;8.00;99.90;;;;;;4992958;28;20699;-61
2022/01/10 12:58:16;;;;;;;11.23;6.60;;;7.80;99.90;;;;;;4992775;28;20222;-62